createdAt,value
2019-05-03T00:02:13.319Z,97705.43
2019-05-03T00:04:43.660Z,97713.02
2019-05-03T00:07:11.795Z,97711.42
2019-05-03T00:09:40.300Z,97716.17
2019-05-03T00:12:08.496Z,97720.61
2019-05-03T00:14:38.907Z,97722.73
2019-05-03T00:17:06.499Z,97724.52
2019-05-03T00:19:33.987Z,97724.41
2019-05-03T00:22:02.073Z,97725.94
2019-05-03T00:24:31.918Z,97723.17
2019-05-03T00:26:58.979Z,97721.50
2019-05-03T00:29:26.474Z,97722.66
2019-05-03T00:31:53.977Z,97724.98
2019-05-03T00:34:26.237Z,97720.69
2019-05-03T00:37:07.612Z,97721.06
2019-05-03T00:39:41.753Z,97723.90
2019-05-03T00:42:09.079Z,97717.20
2019-05-03T00:44:37.335Z,97720.98
2019-05-03T00:47:04.845Z,97714.50
2019-05-03T00:49:32.332Z,97719.70
2019-05-03T00:52:02.271Z,97716.91
2019-05-03T00:54:31.578Z,97717.48
2019-05-03T00:56:58.948Z,97716.76
2019-05-03T00:59:26.432Z,97717.20
2019-05-03T01:01:53.947Z,97711.80
2019-05-03T01:04:22.345Z,97714.97
2019-05-03T01:06:50.027Z,97714.05
2019-05-03T01:09:22.525Z,97718.36
2019-05-03T01:11:50.172Z,97718.88
2019-05-03T01:14:17.663Z,97711.77
2019-05-03T01:16:45.164Z,97711.04
2019-05-03T01:19:12.651Z,97712.61
2019-05-03T01:21:42.163Z,97724.08
2019-05-03T01:24:09.368Z,97723.75
2019-05-03T01:26:36.876Z,97723.64
2019-05-03T01:29:04.367Z,97721.83
2019-05-03T01:31:32.111Z,97714.76
2019-05-03T01:33:59.599Z,97723.75
2019-05-03T01:36:27.104Z,97719.89
2019-05-03T01:38:54.592Z,97723.24
2019-05-03T01:41:22.098Z,97724.73
2019-05-03T01:43:49.592Z,97729.66
2019-05-03T01:46:17.096Z,97728.97
2019-05-03T01:48:46.224Z,97726.38
2019-05-03T01:51:27.226Z,97737.48
2019-05-03T01:53:54.715Z,97735.86
2019-05-03T01:56:22.377Z,97747.73
2019-05-03T01:58:49.988Z,97740.29
2019-05-03T02:01:19.127Z,97741.64
2019-05-03T02:03:52.301Z,97743.94
2019-05-03T02:06:19.879Z,97751.16
2019-05-03T02:08:47.377Z,97750.74
2019-05-03T02:11:15.640Z,97749.91
2019-05-03T02:13:43.133Z,97757.15
2019-05-03T02:16:11.598Z,97756.12
2019-05-03T02:18:39.204Z,97762.33
2019-05-03T02:21:06.699Z,97758.67
2019-05-03T02:23:34.256Z,97761.88
2019-05-03T02:26:03.098Z,97766.55
2019-05-03T02:28:32.550Z,97772.56
2019-05-03T02:31:03.589Z,97767.45
2019-05-03T02:33:29.968Z,97767.45
2019-05-03T02:35:57.457Z,97772.66
2019-05-03T02:38:24.961Z,97770.70
2019-05-03T02:40:53.204Z,97777.38
2019-05-03T02:43:25.870Z,97769.02
2019-05-03T02:45:56.715Z,97773.02
2019-05-03T02:48:36.815Z,97776.77
2019-05-03T02:51:06.554Z,97773.91
2019-05-03T02:53:36.050Z,97784.52
2019-05-03T02:56:14.985Z,97784.11
2019-05-03T02:58:35.700Z,97790.57
2019-05-03T03:01:02.555Z,97787.09
2019-05-03T03:03:30.448Z,97778.52
2019-05-03T03:05:58.214Z,97785.92
2019-05-03T03:08:27.513Z,97785.37
2019-05-03T03:10:56.631Z,97791.03
2019-05-03T03:13:25.305Z,97789.86
2019-05-03T03:15:55.306Z,97792.05
2019-05-03T03:18:25.299Z,97786.61
2019-05-03T03:20:51.886Z,97801.80
2019-05-03T03:23:19.402Z,97803.82
2019-05-03T03:25:47.313Z,97808.87
2019-05-03T03:28:15.879Z,97811.94
2019-05-03T03:31:00.248Z,97808.70
2019-05-03T03:33:28.564Z,97803.47
2019-05-03T03:36:01.314Z,97806.63
2019-05-03T03:38:26.196Z,97803.47
2019-05-03T03:40:58.682Z,97814.76
2019-05-03T03:43:25.962Z,97809.25
2019-05-03T03:45:55.698Z,97809.91
2019-05-03T03:48:23.284Z,97810.02
2019-05-03T03:50:50.777Z,97806.66
2019-05-03T03:53:18.354Z,97806.37
2019-05-03T03:55:46.918Z,97814.45
2019-05-03T03:58:22.052Z,97810.05
2019-05-03T04:00:46.156Z,97813.13
2019-05-03T04:03:15.532Z,97822.55
2019-05-03T04:05:42.077Z,97829.14
2019-05-03T04:08:09.577Z,97827.17
2019-05-03T04:10:37.073Z,97824.82
2019-05-03T04:13:06.220Z,97832.34
2019-05-03T04:15:37.052Z,97833.47
2019-05-03T04:18:09.361Z,97842.38
2019-05-03T04:20:37.929Z,97838.85
2019-05-03T04:23:05.499Z,97842.94
2019-05-03T04:25:35.621Z,97838.56
2019-05-03T04:28:05.816Z,97847.55
2019-05-03T04:30:36.165Z,97850.09
2019-05-03T04:33:05.683Z,97856.11
2019-05-03T04:35:31.819Z,97858.79
2019-05-03T04:37:59.320Z,97863.12
2019-05-03T04:40:26.845Z,97864.80
2019-05-03T04:42:55.572Z,97872.88
2019-05-03T04:45:25.488Z,97873.21
2019-05-03T04:47:55.673Z,97875.61
2019-05-03T04:50:25.256Z,97878.76
2019-05-03T04:52:51.913Z,97883.88
2019-05-03T04:55:19.404Z,97889.94
2019-05-03T04:57:50.302Z,97901.12
2019-05-03T05:00:16.928Z,97899.66
2019-05-03T05:02:45.740Z,97904.66
2019-05-03T05:05:15.457Z,97895.94
2019-05-03T05:07:45.387Z,97901.05
2019-05-03T05:10:15.108Z,97896.73
2019-05-03T05:12:41.572Z,97899.38
2019-05-03T05:15:10.541Z,97911.32
2019-05-03T05:17:39.657Z,97908.20
2019-05-03T05:20:27.069Z,97910.66
2019-05-03T05:22:54.569Z,97915.64
2019-05-03T05:25:32.504Z,97910.73
2019-05-03T05:28:05.014Z,97914.12
2019-05-03T05:30:32.564Z,97918.09
2019-05-03T05:33:00.824Z,97921.61
2019-05-03T05:35:28.325Z,97907.16
2019-05-03T05:37:55.816Z,97922.19
2019-05-03T05:40:24.541Z,97920.72
2019-05-03T05:42:52.190Z,97919.72
2019-05-03T05:45:19.788Z,97922.85
2019-05-03T05:47:57.567Z,97927.45
2019-05-03T05:50:29.396Z,97933.35
2019-05-03T05:52:57.562Z,97936.25
2019-05-03T05:55:27.472Z,97941.11
2019-05-03T05:58:05.373Z,97942.16
2019-05-03T06:00:42.223Z,97945.16
2019-05-03T06:03:09.707Z,97945.83
2019-05-03T06:05:37.213Z,97949.53
2019-05-03T06:08:06.340Z,97947.70
2019-05-03T06:10:35.482Z,97946.25
2019-05-03T06:13:04.982Z,97950.07
2019-05-03T06:15:44.713Z,97951.22
2019-05-03T06:18:19.548Z,97953.11
2019-05-03T06:21:07.045Z,97961.88
2019-05-03T06:23:36.172Z,97960.77
2019-05-03T06:26:05.314Z,97969.07
2019-05-03T06:28:35.252Z,97969.32
2019-05-03T06:31:04.851Z,97969.48
2019-05-03T06:33:34.677Z,97969.39
2019-05-03T06:36:02.310Z,97966.41
2019-05-03T06:38:29.797Z,97968.23
2019-05-03T06:40:57.300Z,97971.56
2019-05-03T06:43:24.784Z,97972.15
2019-05-03T06:45:54.661Z,97973.06
2019-05-03T06:48:26.646Z,97960.52
2019-05-03T06:50:51.554Z,97965.16
2019-05-03T06:53:19.716Z,97964.42
2019-05-03T06:55:48.497Z,97971.13
2019-05-03T06:58:29.777Z,97967.81
2019-05-03T07:00:47.824Z,97967.03
2019-05-03T07:03:32.200Z,97964.73
2019-05-03T07:06:17.753Z,97964.58
2019-05-03T07:09:05.956Z,97961.59
2019-05-03T07:11:34.858Z,97972.14
2019-05-03T07:14:02.527Z,97968.77
2019-05-03T07:16:30.041Z,97971.47
2019-05-03T07:18:58.577Z,97975.47
2019-05-03T07:21:26.305Z,97973.41
2019-05-03T07:23:55.159Z,97968.85
2019-05-03T07:26:22.875Z,97964.31
2019-05-03T07:28:50.365Z,97971.63
2019-05-03T07:31:17.873Z,97972.42
2019-05-03T07:33:45.352Z,97971.20
2019-05-03T07:36:15.050Z,97974.25
2019-05-03T07:38:42.072Z,97964.34
2019-05-03T07:41:10.250Z,97971.72
2019-05-03T07:43:37.745Z,97963.86
2019-05-03T07:46:05.588Z,97963.19
2019-05-03T07:48:35.356Z,97970.22
2019-05-03T07:51:02.952Z,97963.89
2019-05-03T07:53:30.445Z,97964.63
2019-05-03T07:56:05.535Z,97977.77
2019-05-03T07:58:35.187Z,97971.22
2019-05-03T08:01:09.952Z,97969.50
2019-05-03T08:03:36.812Z,97955.84
2019-05-03T08:06:04.849Z,97957.31
2019-05-03T08:08:32.492Z,97966.87
2019-05-03T08:11:00.001Z,97964.20
2019-05-03T08:13:27.497Z,97972.14
2019-05-03T08:15:55.742Z,97966.82
2019-05-03T08:18:25.562Z,97969.45
2019-05-03T08:20:52.796Z,97972.03
2019-05-03T08:23:27.330Z,97966.03
2019-05-03T08:25:50.968Z,97970.46
2019-05-03T08:28:18.596Z,97981.74
2019-05-03T08:31:04.771Z,97973.69
2019-05-03T08:33:44.724Z,97967.52
2019-05-03T08:36:12.112Z,97966.74
2019-05-03T08:38:40.373Z,97971.11
2019-05-03T08:41:09.517Z,97976.34
2019-05-03T08:43:37.788Z,97970.74
2019-05-03T08:46:05.373Z,97971.63
2019-05-03T08:48:35.261Z,97981.17
2019-05-03T08:51:02.101Z,97980.80
2019-05-03T08:53:29.588Z,97977.42
2019-05-03T08:55:57.086Z,97987.19
2019-05-03T08:58:25.596Z,97985.45
2019-05-03T09:00:54.671Z,97979.94
2019-05-03T09:03:22.323Z,97982.47
2019-05-03T09:05:49.864Z,97977.10
2019-05-03T09:08:17.466Z,97977.14
2019-05-03T09:10:49.793Z,97979.70
2019-05-03T09:13:19.726Z,97985.73
2019-05-03T09:15:48.868Z,97982.84
2019-05-03T09:18:17.469Z,97977.42
2019-05-03T09:20:45.351Z,97986.93
2019-05-03T09:23:14.729Z,97993.91
2019-05-03T09:25:42.129Z,97985.64
2019-05-03T09:28:09.624Z,97982.61
2019-05-03T09:30:37.121Z,97980.98
2019-05-03T09:33:08.450Z,97972.09
2019-05-03T09:35:36.077Z,97967.44
2019-05-03T09:38:05.532Z,97967.82
2019-05-03T09:40:35.057Z,97961.36
2019-05-03T09:43:04.345Z,97965.34
2019-05-03T09:45:31.486Z,97958.86
2019-05-03T09:47:59.032Z,97968.13
2019-05-03T09:50:26.520Z,97955.74
2019-05-03T09:52:55.386Z,97960.71
2019-05-03T09:55:25.347Z,97966.16
2019-05-03T09:57:53.008Z,97961.98
2019-05-03T10:00:20.501Z,97974.84
2019-05-03T10:02:48.000Z,97974.72
2019-05-03T10:05:15.588Z,97971.58
2019-05-03T10:07:43.204Z,97959.69
2019-05-03T10:10:10.692Z,97967.03
2019-05-03T10:12:38.200Z,97961.58
2019-05-03T10:15:06.488Z,97947.47
2019-05-03T10:17:35.809Z,97941.40
2019-05-03T10:20:05.796Z,97947.09
2019-05-03T10:22:34.895Z,97949.56
2019-05-03T10:25:04.900Z,97947.48
2019-05-03T10:27:46.949Z,97949.03
2019-05-03T10:30:19.477Z,97952.92
2019-05-03T10:32:48.620Z,97949.99
2019-05-03T10:35:16.681Z,97958.13
2019-05-03T10:37:45.305Z,97947.39
2019-05-03T10:40:13.056Z,97954.38
2019-05-03T10:42:40.628Z,97955.81
2019-05-03T10:45:08.120Z,97958.36
2019-05-03T10:47:35.621Z,97950.81
2019-05-03T10:50:04.755Z,97954.55
2019-05-03T10:52:37.114Z,97951.63
2019-05-03T10:55:05.670Z,97951.66
2019-05-03T10:57:35.538Z,97939.47
2019-05-03T11:00:05.114Z,97941.55
2019-05-03T11:02:35.096Z,97947.28
2019-05-03T11:05:05.246Z,97941.22
2019-05-03T11:07:34.590Z,97943.09
2019-05-03T11:10:02.244Z,97946.75
2019-05-03T11:12:29.760Z,97938.23
2019-05-03T11:14:57.254Z,97937.95
2019-05-03T11:17:25.619Z,97928.14
2019-05-03T11:19:54.713Z,97934.50
2019-05-03T11:22:25.072Z,97929.57
2019-05-03T11:24:54.655Z,97927.70
2019-05-03T11:27:29.321Z,97940.92
2019-05-03T11:29:59.126Z,97938.00
2019-05-03T11:32:30.475Z,97939.02
2019-05-03T11:34:59.595Z,97936.63
2019-05-03T11:37:28.731Z,97942.05
2019-05-03T11:39:56.988Z,97942.37
2019-05-03T11:42:24.584Z,97945.09
2019-05-03T11:44:52.067Z,97941.20
2019-05-03T11:47:19.550Z,97949.63
2019-05-03T11:49:47.058Z,97953.84
2019-05-03T11:52:15.886Z,97945.08
2019-05-03T11:54:45.315Z,97935.34
2019-05-03T11:57:17.433Z,97937.73
2019-05-03T11:59:46.992Z,97931.22
2019-05-03T12:02:16.130Z,97927.56
2019-05-03T12:04:45.218Z,97931.59
2019-05-03T12:07:15.336Z,97926.20
2019-05-03T12:09:45.232Z,97922.67
2019-05-03T12:12:15.176Z,97925.06
2019-05-03T12:14:45.339Z,97927.31
2019-05-03T12:17:22.576Z,97928.12
2019-05-03T12:19:46.846Z,97924.44
2019-05-03T12:22:16.254Z,97903.28
2019-05-03T12:24:45.534Z,97905.82
2019-05-03T12:27:12.365Z,97905.95
2019-05-03T12:29:39.875Z,97908.09
2019-05-03T12:32:07.368Z,97907.23
2019-05-03T12:34:35.314Z,97915.96
2019-05-03T12:37:04.967Z,97910.08
2019-05-03T12:39:35.389Z,97924.22
2019-05-03T12:42:01.503Z,97919.83
2019-05-03T12:44:29.002Z,97912.78
2019-05-03T12:46:56.496Z,97927.09
2019-05-03T12:49:25.037Z,97913.80
2019-05-03T12:51:52.645Z,97909.53
2019-05-03T12:54:20.148Z,97906.22
2019-05-03T12:56:47.644Z,97910.61
2019-05-03T12:59:31.704Z,97908.91
2019-05-03T13:02:04.861Z,97900.16
2019-05-03T13:04:37.316Z,97892.84
2019-05-03T13:07:21.227Z,97886.84
2019-05-03T13:09:48.739Z,97906.69
2019-05-03T13:12:17.883Z,97898.73
2019-05-03T13:14:45.513Z,97891.03
2019-05-03T13:17:15.134Z,97892.34
2019-05-03T13:19:42.656Z,97897.31
2019-05-03T13:22:10.193Z,97890.92
2019-05-03T13:24:37.696Z,97890.66
2019-05-03T13:27:05.736Z,97892.77
2019-05-03T13:29:34.848Z,97896.36
2019-05-03T13:32:02.516Z,97887.84
2019-05-03T13:34:30.020Z,97893.36
2019-05-03T13:36:57.802Z,97884.41
2019-05-03T13:39:26.628Z,97878.12
2019-05-03T13:41:54.951Z,97876.30
2019-05-03T13:44:22.528Z,97873.20
2019-05-03T13:46:50.694Z,97880.45
2019-05-03T13:49:19.572Z,97874.73
2019-05-03T13:51:47.366Z,97867.53
2019-05-03T13:54:15.557Z,97869.02
2019-05-03T13:56:43.052Z,97872.68
2019-05-03T13:59:19.102Z,97873.19
2019-05-03T14:01:39.791Z,97854.56
2019-05-03T14:04:07.297Z,97860.84
2019-05-03T14:06:36.651Z,97853.14
2019-05-03T14:09:05.360Z,97849.27
2019-05-03T14:11:32.934Z,97850.59
2019-05-03T14:14:01.283Z,97853.42
2019-05-03T14:16:29.529Z,97849.28
2019-05-03T14:18:58.661Z,97849.55
2019-05-03T14:21:34.542Z,97847.12
2019-05-03T14:24:11.929Z,97849.09
2019-05-03T14:26:40.005Z,97840.25
2019-05-03T14:29:07.505Z,97840.25
2019-05-03T14:31:35.009Z,97844.00
2019-05-03T14:34:02.517Z,97849.02
2019-05-03T14:36:30.677Z,97849.06
2019-05-03T14:38:58.468Z,97839.80
2019-05-03T14:41:25.960Z,97833.48
2019-05-03T14:43:55.575Z,97827.06
2019-05-03T14:46:30.041Z,97820.09
2019-05-03T14:48:51.913Z,97822.75
2019-05-03T14:51:19.416Z,97811.63
2019-05-03T14:53:49.711Z,97811.83
2019-05-03T14:56:18.840Z,97820.30
2019-05-03T14:58:56.674Z,97813.98
2019-05-03T15:01:25.825Z,97814.13
2019-05-03T15:03:54.973Z,97812.52
2019-05-03T15:06:24.805Z,97805.98
2019-05-03T15:08:51.827Z,97804.70
2019-05-03T15:11:19.420Z,97800.81
2019-05-03T15:13:46.926Z,97790.70
2019-05-03T15:16:15.191Z,97798.80
2019-05-03T15:18:45.242Z,97800.86
2019-05-03T15:21:14.484Z,97794.05
2019-05-03T15:23:42.667Z,97794.98
2019-05-03T15:26:10.178Z,97794.48
2019-05-03T15:28:38.341Z,97794.91
2019-05-03T15:31:05.849Z,97792.74
2019-05-03T15:33:35.187Z,97793.59
2019-05-03T15:36:04.597Z,97790.16
2019-05-03T15:38:31.811Z,97790.73
2019-05-03T15:40:59.315Z,97787.66
2019-05-03T15:43:29.030Z,97783.33
2019-05-03T15:45:58.640Z,97794.86
2019-05-03T15:48:27.788Z,97792.15
2019-05-03T15:50:55.496Z,97788.13
2019-05-03T15:53:24.697Z,97784.91
2019-05-03T15:55:52.448Z,97781.75
2019-05-03T15:58:19.940Z,97777.13
2019-05-03T16:00:47.618Z,97780.19
2019-05-03T16:03:15.125Z,97773.48
2019-05-03T16:05:44.589Z,97778.81
2019-05-03T16:08:11.848Z,97773.84
2019-05-03T16:10:39.353Z,97775.09
2019-05-03T16:13:06.853Z,97772.35
2019-05-03T16:15:35.186Z,97780.84
2019-05-03T16:18:04.998Z,97778.90
2019-05-03T16:20:32.158Z,97771.77
2019-05-03T16:23:01.338Z,97770.09
2019-05-03T16:25:28.843Z,97761.78
2019-05-03T16:28:01.304Z,97769.08
2019-05-03T16:30:30.433Z,97759.31
2019-05-03T16:32:57.931Z,97764.66
2019-05-03T16:35:25.705Z,97754.75
2019-05-03T16:37:54.452Z,97755.90
2019-05-03T16:40:22.081Z,97765.30
2019-05-03T16:42:50.247Z,97762.16
2019-05-03T16:45:17.732Z,97764.67
2019-05-03T16:47:45.230Z,97761.33
2019-05-03T16:50:14.450Z,97761.67
2019-05-03T16:52:42.167Z,97755.82
2019-05-03T16:55:09.660Z,97761.33
2019-05-03T16:57:37.931Z,97752.19
2019-05-03T17:00:06.490Z,97762.73
2019-05-03T17:02:35.044Z,97761.05
2019-05-03T17:05:14.690Z,97764.80
2019-05-03T17:07:49.911Z,97760.53
2019-05-03T17:10:27.874Z,97760.11
2019-05-03T17:12:56.969Z,97753.25
2019-05-03T17:15:24.994Z,97762.41
2019-05-03T17:17:52.615Z,97762.40
2019-05-03T17:20:20.961Z,97762.90
2019-05-03T17:22:48.460Z,97767.63
2019-05-03T17:25:16.261Z,97767.21
2019-05-03T17:27:44.903Z,97768.85
2019-05-03T17:30:12.536Z,97765.95
2019-05-03T17:32:40.830Z,97763.04
2019-05-03T17:35:08.315Z,97762.61
2019-05-03T17:37:35.827Z,97764.69
2019-05-03T17:40:21.686Z,97762.50
2019-05-03T17:42:59.568Z,97758.98
2019-05-03T17:45:29.472Z,97757.52
2019-05-03T17:47:56.972Z,97758.66
2019-05-03T17:50:24.461Z,97766.36
2019-05-03T17:53:10.160Z,97759.91
2019-05-03T17:55:39.291Z,97751.87
2019-05-03T17:58:08.449Z,97752.73
2019-05-03T18:00:56.081Z,97754.38
2019-05-03T18:03:25.763Z,97737.70
2019-05-03T18:05:57.875Z,97742.20
2019-05-03T18:08:27.013Z,97740.13
2019-05-03T18:10:56.424Z,97743.13
2019-05-03T18:13:24.781Z,97740.41
2019-05-03T18:15:54.249Z,97743.73
2019-05-03T18:18:21.511Z,97746.54
2019-05-03T18:20:49.003Z,97748.21
2019-05-03T18:23:16.518Z,97743.95
2019-05-03T18:25:44.702Z,97738.84
2019-05-03T18:28:14.625Z,97743.61
2019-05-03T18:30:41.608Z,97745.50
2019-05-03T18:33:09.112Z,97745.71
2019-05-03T18:35:36.638Z,97745.88
2019-05-03T18:38:04.249Z,97751.50
2019-05-03T18:40:32.906Z,97743.58
2019-05-03T18:43:08.323Z,97746.42
2019-05-03T18:45:37.569Z,97753.91
2019-05-03T18:48:05.138Z,97757.45
2019-05-03T18:50:32.704Z,97755.79
2019-05-03T18:53:00.633Z,97751.84
2019-05-03T18:55:28.136Z,97752.16
2019-05-03T18:57:55.625Z,97751.41
2019-05-03T19:00:24.639Z,97750.13
2019-05-03T19:02:54.631Z,97753.34
2019-05-03T19:05:24.319Z,97753.22
2019-05-03T19:07:59.560Z,97756.53
2019-05-03T19:10:35.396Z,97758.17
2019-05-03T19:13:07.828Z,97755.17
2019-05-03T19:15:35.334Z,97760.41
2019-05-03T19:18:04.465Z,97757.89
2019-05-03T19:20:31.995Z,97756.63
2019-05-03T19:22:59.481Z,97755.29
2019-05-03T19:25:26.985Z,97761.47
2019-05-03T19:27:54.622Z,97755.19
2019-05-03T19:30:24.331Z,97759.06
2019-05-03T19:32:51.626Z,97759.38
2019-05-03T19:35:19.119Z,97755.80
2019-05-03T19:37:46.775Z,97758.54
2019-05-03T19:40:14.285Z,97750.58
2019-05-03T19:42:41.784Z,97753.41
2019-05-03T19:45:09.280Z,97753.98
2019-05-03T19:47:36.767Z,97761.34
2019-05-03T19:50:05.657Z,97764.03
2019-05-03T19:52:37.010Z,97758.16
2019-05-03T19:55:07.577Z,97753.17
2019-05-03T19:57:36.712Z,97750.75
2019-05-03T20:00:08.490Z,97751.71
2019-05-03T20:02:54.408Z,97742.72
2019-05-03T20:05:38.771Z,97749.79
2019-05-03T20:08:16.695Z,97747.01
2019-05-03T20:10:45.076Z,97746.82
2019-05-03T20:13:12.570Z,97744.22
2019-05-03T20:15:40.149Z,97742.74
2019-05-03T20:18:07.640Z,97749.33
2019-05-03T20:20:35.812Z,97755.11
2019-05-03T20:23:05.129Z,97748.81
2019-05-03T20:25:32.555Z,97747.59
2019-05-03T20:28:00.038Z,97746.12
2019-05-03T20:30:27.541Z,97742.58
2019-05-03T20:32:55.580Z,97739.86
2019-05-03T20:35:25.134Z,97739.05
2019-05-03T20:37:52.427Z,97740.50
2019-05-03T20:40:19.934Z,97741.48
2019-05-03T20:42:49.073Z,97736.23
2019-05-03T20:45:24.870Z,97732.70
2019-05-03T20:47:59.700Z,97728.33
2019-05-03T20:50:27.267Z,97734.83
2019-05-03T20:52:55.062Z,97734.50
2019-05-03T20:55:22.740Z,97729.06
2019-05-03T20:57:50.245Z,97738.05
2019-05-03T21:00:19.395Z,97736.28
2019-05-03T21:02:53.479Z,97735.53
2019-05-03T21:05:26.785Z,97733.23
2019-05-03T21:07:45.577Z,97734.17
2019-05-03T21:10:15.550Z,97734.91
2019-05-03T21:12:42.720Z,97729.84
2019-05-03T21:15:15.501Z,97727.06
2019-05-03T21:17:50.435Z,97728.52
2019-05-03T21:20:22.267Z,97730.64
2019-05-03T21:22:49.761Z,97721.71
2019-05-03T21:25:18.904Z,97729.64
2019-05-03T21:27:46.402Z,97724.14
2019-05-03T21:30:15.128Z,97715.80
2019-05-03T21:32:44.392Z,97715.98
2019-05-03T21:35:11.985Z,97711.75
2019-05-03T21:37:39.487Z,97712.44
2019-05-03T21:40:06.986Z,97712.89
2019-05-03T21:42:35.107Z,97712.30
2019-05-03T21:45:04.586Z,97713.72
2019-05-03T21:47:35.123Z,97714.06
2019-05-03T21:50:04.693Z,97711.42
2019-05-03T21:52:32.265Z,97713.14
2019-05-03T21:54:59.752Z,97715.55
2019-05-03T21:57:27.253Z,97715.08
2019-05-03T21:59:55.052Z,97719.89
2019-05-03T22:02:24.563Z,97711.88
2019-05-03T22:04:52.015Z,97714.05
2019-05-03T22:07:20.284Z,97721.69
2019-05-03T22:09:47.768Z,97716.95
2019-05-03T22:12:15.272Z,97718.99
2019-05-03T22:14:47.086Z,97716.20
2019-05-03T22:17:34.441Z,97717.81
2019-05-03T22:20:04.890Z,97715.58
2019-05-03T22:22:36.334Z,97716.45
2019-05-03T22:25:05.865Z,97715.77
2019-05-03T22:27:37.684Z,97720.61
2019-05-03T22:30:06.812Z,97718.33
2019-05-03T22:32:35.503Z,97711.11
2019-05-03T22:35:04.921Z,97714.32
2019-05-03T22:37:34.971Z,97713.44
2019-05-03T22:40:02.202Z,97712.09
2019-05-03T22:42:29.692Z,97716.96
2019-05-03T22:44:57.200Z,97712.94
2019-05-03T22:47:25.338Z,97714.11
2019-05-03T22:49:54.776Z,97710.02
2019-05-03T22:52:22.439Z,97700.54
2019-05-03T22:54:49.937Z,97700.82
2019-05-03T22:57:17.437Z,97706.48
2019-05-03T22:59:45.228Z,97701.45
2019-05-03T23:02:16.842Z,97706.53
2019-05-03T23:04:44.682Z,97696.02
2019-05-03T23:07:11.842Z,97694.67
2019-05-03T23:09:39.389Z,97697.47
2019-05-03T23:12:06.892Z,97701.12
2019-05-03T23:14:34.756Z,97694.39
2019-05-03T23:17:02.355Z,97691.95
2019-05-03T23:19:30.821Z,97691.75
2019-05-03T23:22:06.118Z,97687.39
2019-05-03T23:24:35.227Z,97683.11
2019-05-03T23:27:04.845Z,97680.59
2019-05-03T23:29:32.204Z,97680.75
2019-05-03T23:31:59.708Z,97681.78
2019-05-03T23:34:27.283Z,97675.50
2019-05-03T23:36:54.875Z,97676.89
2019-05-03T23:39:22.443Z,97665.67
2019-05-03T23:41:49.944Z,97665.47
2019-05-03T23:44:17.432Z,97658.36
2019-05-03T23:46:49.727Z,97655.30
2019-05-03T23:49:17.993Z,97654.91
2019-05-03T23:51:52.399Z,97653.63
2019-05-03T23:54:19.892Z,97649.81
2019-05-03T23:56:47.459Z,97652.52
2019-05-03T23:59:15.088Z,97653.84
